Terminal Aerodrome Forecast
Issued by NWS Pocatello, ID

Home | Current Version | Previous Version | Text Only | Print | Product List | Glossary On
Versions: 1 2 3 4 5 6 7 8 9 10 11 12 13 14
000
FTUS45 KPIH 120100 AAB
TAFBYI
TAF AMD
KBYI 120107Z 1201/1224 20010G20KT P6SM VCTS FEW080CB BKN150
      TEMPO 1201/1202 VRB25G40KT
     FM120300 16008KT P6SM BKN150
     FM121700 VRB06KT P6SM VCTS SCT100 BKN150CB=

USA.gov is the U.S. government's official web portal to all federal, state and local government web resources and services.